Skip Navigation LinksHome page > Weather > Current weather Skip Navigation Links

Current Weather

Eureka, Nunavut

For information only: do not use for flight planning or navigation.
Latest weather
Observation time Friday, March 6, 2015 10:00 PM CST
Local time Friday, March 6, 2015 10:18 PM CST
Flight conditions Visual Meteorological Conditions
Winds
Wind speed calm
Visibility 15 mi.
Sky condition
Ceiling 22,000 ft. broken clouds
Cloud layer few clouds 3,000 ft.
Cloud layer broken clouds 22,000 ft.
Temperature -42°F
Dewpoint -49°F
Altimeter 29.42 in.Hg
Derived measurements
Relative humidity 65%
Wind chill -42°F
Density altitude -6914 ft.
Sea-level pressure 29.42 in.Hg
METAR CWEU 070400Z 00000KT 15SM FEW030 BKN220 M41/M45 A2942 RMK SC2CS2 SLP964

Settings

Location code

InnerDrive.Weather 4.0.5505.0 Release CLR 4.0.30319.34014
Copyright ©2015 Inner Drive Technology. All rights reserved. Portions Copyright ©1986-2015 David Braverman.

Find weather

Site navigation


Skip Navigation Links

Place info

Page info

PayPal - The safer, easier way to pay online!

Return home.

Copyright ©2015 Inner Drive Technology. Purveyors of fine, hand-crafted computer software. Page printed 2015-03-07T04:18:54 UTC.